Главная страница
METAR-TAF:

METAR-TAF

Аэропорты :

Владикавказ, Россия

широта: 43-12-18N, долгота: 044-36-24E, высота над уровнем моря: 510 м

Текущие метеонаблюдения

Эта сводка был подготовлена 25 минут назад, в 10:00 UTC
Ветер 2 Узел переменных направлений
Температура 1°C
Влажность 93%
Давление 1007 hPa
Видимость 10 км и более
Отдельные облака на высоте 800 фута

METAR: URMO 221000Z VRB01MPS 9999 SCT008 01/00 Q1007 R09/010070 NOSIG RMK QFE712/0950

Время: 13:25 (10:25 UTC)

Прогноз

Эта сводка был подготовлена 2 часа и 25 минут назад, в 08:00 UTC
Прогноз действительный с 22-го 09 UTC до 22-го 18 UTC
Ветер 6 Узел от северо-восточный с порывами до 16 Узел
Видимость: 5000 м
Рассеянная облачность на высоте 2000 фута
Сплошная облачность на высоте 10000 фута
дымка
временами
С 22-го 09 UTC до 22-го 12 UTC
Видимость: 0500 м
Сплошная облачность на высоте 200 фута
переохлажденный туман

TAF: URMO 220800Z 2209/2218 05003G08MPS 5000 BR BKN020 OVC100 TEMPO 2209/2212 0500 FZFG OVC002

Метеонаблюдения и прогнозы для более 4000 аэропортов (сводки METAR и TAF).

Имеющиеся станции представлены на карте желтыми и красными точками.

Чтобы увидеть название станции, наведите на нее мышь.

Затем щелкните, чтобы увидеть метеонаблюдения и метеопрогнозы.

Управление картой: чтобы увеличить масштаб, щелкните зеленые кнопки с черным крестиком; чтобы уменьшить масштаб, щелкните зеленую кнопку с тире; для просмотра соседних карт щелкайте зеленые стрелки.


METAR-TAF: